sensor_id;sensor_type;location;lat;lon;timestamp;P1;durP1;ratioP1;P2;durP2;ratioP2
51296;SDS011;37380;45.186;9.792;2023-07-31T00:01:49;28.98;;;26.10;;
51296;SDS011;37380;45.186;9.792;2023-07-31T00:04:17;25.95;;;23.00;;
51296;SDS011;37380;45.186;9.792;2023-07-31T00:06:54;30.17;;;27.05;;
51296;SDS011;37380;45.186;9.792;2023-07-31T00:09:57;29.00;;;26.25;;
51296;SDS011;37380;45.186;9.792;2023-07-31T00:12:58;31.15;;;25.67;;
51296;SDS011;37380;45.186;9.792;2023-07-31T00:15:46;27.95;;;25.52;;
51296;SDS011;37380;45.186;9.792;2023-07-31T00:18:13;28.10;;;25.00;;
51296;SDS011;37380;45.186;9.792;2023-07-31T00:20:44;27.70;;;25.10;;
51296;SDS011;37380;45.186;9.792;2023-07-31T00:23:13;31.50;;;24.00;;
51296;SDS011;37380;45.186;9.792;2023-07-31T00:25:43;25.17;;;22.92;;
51296;SDS011;37380;45.186;9.792;2023-07-31T00:28:11;27.90;;;25.30;;
51296;SDS011;37380;45.186;9.792;2023-07-31T00:30:41;27.25;;;24.73;;
51296;SDS011;37380;45.186;9.792;2023-07-31T00:33:10;28.25;;;25.73;;
51296;SDS011;37380;45.186;9.792;2023-07-31T00:35:39;27.98;;;25.58;;
51296;SDS011;37380;45.186;9.792;2023-07-31T00:38:08;29.17;;;26.30;;
51296;SDS011;37380;45.186;9.792;2023-07-31T00:40:35;29.70;;;27.08;;
51296;SDS011;37380;45.186;9.792;2023-07-31T00:43:04;29.48;;;26.33;;
51296;SDS011;37380;45.186;9.792;2023-07-31T00:45:34;28.33;;;25.10;;
51296;SDS011;37380;45.186;9.792;2023-07-31T00:48:02;29.17;;;26.58;;
51296;SDS011;37380;45.186;9.792;2023-07-31T00:50:30;27.23;;;24.73;;
51296;SDS011;37380;45.186;9.792;2023-07-31T00:52:57;25.63;;;23.13;;
51296;SDS011;37380;45.186;9.792;2023-07-31T00:55:25;25.55;;;23.00;;
51296;SDS011;37380;45.186;9.792;2023-07-31T00:57:53;25.77;;;23.20;;
51296;SDS011;37380;45.186;9.792;2023-07-31T01:00:24;26.13;;;23.58;;
51296;SDS011;37380;45.186;9.792;2023-07-31T01:02:57;24.08;;;21.92;;
51296;SDS011;37380;45.186;9.792;2023-07-31T01:05:42;24.63;;;22.60;;
51296;SDS011;37380;45.186;9.792;2023-07-31T01:09:04;26.30;;;23.50;;
51296;SDS011;37380;45.186;9.792;2023-07-31T01:12:14;23.65;;;21.42;;
51296;SDS011;37380;45.186;9.792;2023-07-31T01:15:11;22.95;;;20.95;;
51296;SDS011;37380;45.186;9.792;2023-07-31T01:17:38;20.55;;;18.58;;
51296;SDS011;37380;45.186;9.792;2023-07-31T01:20:22;21.38;;;19.58;;
51296;SDS011;37380;45.186;9.792;2023-07-31T01:23:17;19.55;;;17.88;;
51296;SDS011;37380;45.186;9.792;2023-07-31T01:31:12;20.42;;;18.33;;
51296;SDS011;37380;45.186;9.792;2023-07-31T01:33:43;18.40;;;16.48;;
51296;SDS011;37380;45.186;9.792;2023-07-31T01:36:18;18.88;;;17.05;;
51296;SDS011;37380;45.186;9.792;2023-07-31T01:39:21;18.88;;;17.08;;
51296;SDS011;37380;45.186;9.792;2023-07-31T01:41:51;18.77;;;16.95;;
51296;SDS011;37380;45.186;9.792;2023-07-31T01:44:20;18.05;;;16.55;;
51296;SDS011;37380;45.186;9.792;2023-07-31T01:46:47;16.88;;;15.45;;
51296;SDS011;37380;45.186;9.792;2023-07-31T01:49:15;21.80;;;15.75;;
51296;SDS011;37380;45.186;9.792;2023-07-31T01:51:49;19.45;;;17.25;;
51296;SDS011;37380;45.186;9.792;2023-07-31T01:54:16;17.13;;;15.60;;
51296;SDS011;37380;45.186;9.792;2023-07-31T01:56:46;15.52;;;14.07;;
51296;SDS011;37380;45.186;9.792;2023-07-31T01:59:14;18.02;;;16.50;;
51296;SDS011;37380;45.186;9.792;2023-07-31T02:01:45;18.63;;;16.60;;
51296;SDS011;37380;45.186;9.792;2023-07-31T02:04:20;19.60;;;15.68;;
51296;SDS011;37380;45.186;9.792;2023-07-31T02:07:22;16.88;;;15.13;;
51296;SDS011;37380;45.186;9.792;2023-07-31T02:10:26;16.57;;;15.20;;
51296;SDS011;37380;45.186;9.792;2023-07-31T02:13:27;20.92;;;16.13;;
51296;SDS011;37380;45.186;9.792;2023-07-31T02:16:22;18.08;;;16.50;;
51296;SDS011;37380;45.186;9.792;2023-07-31T02:18:49;16.95;;;15.32;;
51296;SDS011;37380;45.186;9.792;2023-07-31T02:21:21;17.33;;;15.57;;
51296;SDS011;37380;45.186;9.792;2023-07-31T02:23:50;18.40;;;16.70;;
51296;SDS011;37380;45.186;9.792;2023-07-31T02:26:21;17.92;;;15.95;;
51296;SDS011;37380;45.186;9.792;2023-07-31T02:28:48;18.83;;;14.77;;
51296;SDS011;37380;45.186;9.792;2023-07-31T02:31:16;15.88;;;14.43;;
51296;SDS011;37380;45.186;9.792;2023-07-31T02:33:48;17.70;;;16.08;;
51296;SDS011;37380;45.186;9.792;2023-07-31T02:36:18;17.52;;;15.80;;
51296;SDS011;37380;45.186;9.792;2023-07-31T02:38:49;18.90;;;16.92;;
51296;SDS011;37380;45.186;9.792;2023-07-31T02:41:17;17.58;;;15.73;;
51296;SDS011;37380;45.186;9.792;2023-07-31T02:43:45;17.65;;;16.15;;
51296;SDS011;37380;45.186;9.792;2023-07-31T02:46:15;18.17;;;16.55;;
51296;SDS011;37380;45.186;9.792;2023-07-31T02:48:44;22.85;;;18.17;;
51296;SDS011;37380;45.186;9.792;2023-07-31T02:51:14;17.38;;;15.85;;
51296;SDS011;37380;45.186;9.792;2023-07-31T02:53:46;18.60;;;16.20;;
51296;SDS011;37380;45.186;9.792;2023-07-31T02:56:13;17.65;;;16.25;;
51296;SDS011;37380;45.186;9.792;2023-07-31T02:58:41;18.10;;;16.25;;
51296;SDS011;37380;45.186;9.792;2023-07-31T03:01:15;17.90;;;16.25;;
51296;SDS011;37380;45.186;9.792;2023-07-31T03:04:18;18.55;;;16.85;;
51296;SDS011;37380;45.186;9.792;2023-07-31T03:07:16;19.35;;;17.45;;
51296;SDS011;37380;45.186;9.792;2023-07-31T03:09:51;17.60;;;16.02;;
51296;SDS011;37380;45.186;9.792;2023-07-31T03:12:51;18.77;;;17.23;;
51296;SDS011;37380;45.186;9.792;2023-07-31T03:15:46;18.25;;;16.13;;
51296;SDS011;37380;45.186;9.792;2023-07-31T03:18:14;18.92;;;17.17;;
51296;SDS011;37380;45.186;9.792;2023-07-31T03:20:42;23.92;;;16.90;;
51296;SDS011;37380;45.186;9.792;2023-07-31T03:23:12;17.42;;;16.13;;
51296;SDS011;37380;45.186;9.792;2023-07-31T03:25:41;19.38;;;17.75;;
51296;SDS011;37380;45.186;9.792;2023-07-31T03:28:22;18.85;;;17.23;;
51296;SDS011;37380;45.186;9.792;2023-07-31T03:30:50;17.88;;;16.33;;
51296;SDS011;37380;45.186;9.792;2023-07-31T03:33:18;23.83;;;16.15;;
51296;SDS011;37380;45.186;9.792;2023-07-31T03:35:46;18.00;;;16.50;;
51296;SDS011;37380;45.186;9.792;2023-07-31T03:38:14;27.15;;;18.50;;
51296;SDS011;37380;45.186;9.792;2023-07-31T03:40:41;19.17;;;17.48;;
51296;SDS011;37380;45.186;9.792;2023-07-31T03:43:10;19.52;;;17.42;;
51296;SDS011;37380;45.186;9.792;2023-07-31T03:45:39;20.55;;;18.52;;
51296;SDS011;37380;45.186;9.792;2023-07-31T03:48:06;20.27;;;18.40;;
51296;SDS011;37380;45.186;9.792;2023-07-31T03:50:36;21.40;;;19.30;;
51296;SDS011;37380;45.186;9.792;2023-07-31T03:53:04;19.92;;;18.20;;
51296;SDS011;37380;45.186;9.792;2023-07-31T03:55:32;18.95;;;16.33;;
51296;SDS011;37380;45.186;9.792;2023-07-31T03:57:59;20.42;;;18.40;;
51296;SDS011;37380;45.186;9.792;2023-07-31T04:00:34;20.98;;;18.95;;
51296;SDS011;37380;45.186;9.792;2023-07-31T04:03:34;21.75;;;19.80;;
51296;SDS011;37380;45.186;9.792;2023-07-31T04:06:38;20.88;;;18.98;;
51296;SDS011;37380;45.186;9.792;2023-07-31T04:09:31;20.17;;;18.38;;
51296;SDS011;37380;45.186;9.792;2023-07-31T04:12:32;19.90;;;17.77;;
51296;SDS011;37380;45.186;9.792;2023-07-31T04:15:33;23.20;;;16.73;;
51296;SDS011;37380;45.186;9.792;2023-07-31T04:18:24;25.58;;;18.13;;
51296;SDS011;37380;45.186;9.792;2023-07-31T04:20:53;19.60;;;17.80;;
51296;SDS011;37380;45.186;9.792;2023-07-31T04:23:21;21.08;;;18.98;;
51296;SDS011;37380;45.186;9.792;2023-07-31T04:25:49;19.05;;;17.05;;
51296;SDS011;37380;45.186;9.792;2023-07-31T04:28:17;22.33;;;18.15;;
51296;SDS011;37380;45.186;9.792;2023-07-31T04:30:45;16.45;;;15.13;;
51296;SDS011;37380;45.186;9.792;2023-07-31T04:33:19;18.27;;;16.65;;
51296;SDS011;37380;45.186;9.792;2023-07-31T04:35:50;18.27;;;16.88;;
51296;SDS011;37380;45.186;9.792;2023-07-31T04:38:19;17.05;;;15.65;;
51296;SDS011;37380;45.186;9.792;2023-07-31T04:40:52;19.10;;;16.83;;
51296;SDS011;37380;45.186;9.792;2023-07-31T04:43:20;15.98;;;14.57;;
51296;SDS011;37380;45.186;9.792;2023-07-31T04:45:47;15.90;;;14.52;;
51296;SDS011;37380;45.186;9.792;2023-07-31T04:48:17;15.00;;;13.25;;
51296;SDS011;37380;45.186;9.792;2023-07-31T04:50:53;15.60;;;14.15;;
51296;SDS011;37380;45.186;9.792;2023-07-31T04:53:51;14.10;;;12.38;;
51296;SDS011;37380;45.186;9.792;2023-07-31T04:56:19;16.05;;;13.45;;
51296;SDS011;37380;45.186;9.792;2023-07-31T04:58:47;20.52;;;13.80;;
51296;SDS011;37380;45.186;9.792;2023-07-31T05:01:22;15.05;;;12.82;;
51296;SDS011;37380;45.186;9.792;2023-07-31T05:04:22;13.02;;;11.82;;
51296;SDS011;37380;45.186;9.792;2023-07-31T05:07:10;13.43;;;12.10;;
51296;SDS011;37380;45.186;9.792;2023-07-31T05:09:44;13.32;;;12.10;;
51296;SDS011;37380;45.186;9.792;2023-07-31T05:12:44;12.95;;;11.63;;
51296;SDS011;37380;45.186;9.792;2023-07-31T05:15:39;13.23;;;12.10;;
51296;SDS011;37380;45.186;9.792;2023-07-31T05:18:08;16.25;;;12.20;;
51296;SDS011;37380;45.186;9.792;2023-07-31T05:20:35;14.40;;;12.90;;
51296;SDS011;37380;45.186;9.792;2023-07-31T05:23:03;14.13;;;12.65;;
51296;SDS011;37380;45.186;9.792;2023-07-31T05:25:30;13.27;;;12.00;;
51296;SDS011;37380;45.186;9.792;2023-07-31T05:27:58;12.68;;;11.60;;
51296;SDS011;37380;45.186;9.792;2023-07-31T05:30:26;13.23;;;11.90;;
51296;SDS011;37380;45.186;9.792;2023-07-31T05:32:56;14.93;;;13.55;;
51296;SDS011;37380;45.186;9.792;2023-07-31T05:35:27;13.65;;;12.55;;
51296;SDS011;37380;45.186;9.792;2023-07-31T05:37:56;14.10;;;12.80;;
51296;SDS011;37380;45.186;9.792;2023-07-31T05:40:25;15.27;;;13.77;;
51296;SDS011;37380;45.186;9.792;2023-07-31T05:42:55;14.75;;;13.27;;
51296;SDS011;37380;45.186;9.792;2023-07-31T05:45:23;15.00;;;13.70;;
51296;SDS011;37380;45.186;9.792;2023-07-31T05:47:59;16.80;;;12.65;;
51296;SDS011;37380;45.186;9.792;2023-07-31T05:51:05;15.05;;;13.05;;
51296;SDS011;37380;45.186;9.792;2023-07-31T05:53:37;12.68;;;11.20;;
51296;SDS011;37380;45.186;9.792;2023-07-31T05:56:15;13.13;;;11.70;;
51296;SDS011;37380;45.186;9.792;2023-07-31T05:59:17;12.50;;;10.75;;
51296;SDS011;37380;45.186;9.792;2023-07-31T06:02:09;12.18;;;11.10;;
51296;SDS011;37380;45.186;9.792;2023-07-31T06:05:25;11.50;;;10.30;;
51296;SDS011;37380;45.186;9.792;2023-07-31T06:08:35;11.65;;;10.65;;
51296;SDS011;37380;45.186;9.792;2023-07-31T06:11:39;11.50;;;9.65;;
51296;SDS011;37380;45.186;9.792;2023-07-31T06:14:47;12.82;;;11.73;;
51296;SDS011;37380;45.186;9.792;2023-07-31T06:17:54;11.30;;;10.30;;
51296;SDS011;37380;45.186;9.792;2023-07-31T06:21:00;12.80;;;9.80;;
51296;SDS011;37380;45.186;9.792;2023-07-31T06:23:50;12.55;;;9.90;;
51296;SDS011;37380;45.186;9.792;2023-07-31T06:26:19;14.57;;;9.52;;
51296;SDS011;37380;45.186;9.792;2023-07-31T06:28:59;10.32;;;9.43;;
51296;SDS011;37380;45.186;9.792;2023-07-31T06:31:37;9.52;;;8.68;;
51296;SDS011;37380;45.186;9.792;2023-07-31T06:34:13;10.73;;;9.70;;
51296;SDS011;37380;45.186;9.792;2023-07-31T06:37:14;12.43;;;10.05;;
51296;SDS011;37380;45.186;9.792;2023-07-31T06:39:57;9.10;;;8.40;;
51296;SDS011;37380;45.186;9.792;2023-07-31T06:42:45;10.32;;;9.30;;
51296;SDS011;37380;45.186;9.792;2023-07-31T06:45:47;10.63;;;8.65;;
51296;SDS011;37380;45.186;9.792;2023-07-31T06:48:27;11.65;;;9.18;;
51296;SDS011;37380;45.186;9.792;2023-07-31T06:51:32;13.63;;;9.35;;
51296;SDS011;37380;45.186;9.792;2023-07-31T06:54:07;10.60;;;8.63;;
51296;SDS011;37380;45.186;9.792;2023-07-31T06:56:42;10.00;;;9.20;;
51296;SDS011;37380;45.186;9.792;2023-07-31T06:59:44;17.45;;;8.95;;
51296;SDS011;37380;45.186;9.792;2023-07-31T07:02:51;9.23;;;8.52;;
51296;SDS011;37380;45.186;9.792;2023-07-31T07:05:54;10.85;;;9.75;;
51296;SDS011;37380;45.186;9.792;2023-07-31T07:08:58;11.90;;;10.65;;
51296;SDS011;37380;45.186;9.792;2023-07-31T07:12:05;8.68;;;7.95;;
51296;SDS011;37380;45.186;9.792;2023-07-31T07:15:16;12.30;;;11.07;;
51296;SDS011;37380;45.186;9.792;2023-07-31T07:18:20;10.05;;;9.20;;
51296;SDS011;37380;45.186;9.792;2023-07-31T07:21:33;12.00;;;10.40;;
51296;SDS011;37380;45.186;9.792;2023-07-31T07:24:34;11.32;;;10.32;;
51296;SDS011;37380;45.186;9.792;2023-07-31T07:27:28;11.57;;;9.40;;
51296;SDS011;37380;45.186;9.792;2023-07-31T07:29:55;9.23;;;8.35;;
51296;SDS011;37380;45.186;9.792;2023-07-31T07:32:22;9.55;;;8.63;;
51296;SDS011;37380;45.186;9.792;2023-07-31T07:34:49;10.23;;;7.80;;
51296;SDS011;37380;45.186;9.792;2023-07-31T07:37:16;7.85;;;7.15;;
51296;SDS011;37380;45.186;9.792;2023-07-31T07:39:43;8.00;;;7.30;;
51296;SDS011;37380;45.186;9.792;2023-07-31T07:42:11;8.27;;;7.55;;
51296;SDS011;37380;45.186;9.792;2023-07-31T07:44:45;9.45;;;8.45;;
51296;SDS011;37380;45.186;9.792;2023-07-31T07:47:46;11.70;;;7.70;;
51296;SDS011;37380;45.186;9.792;2023-07-31T07:50:40;8.50;;;7.80;;
51296;SDS011;37380;45.186;9.792;2023-07-31T07:53:07;7.18;;;6.13;;
51296;SDS011;37380;45.186;9.792;2023-07-31T07:55:35;9.15;;;6.47;;
51296;SDS011;37380;45.186;9.792;2023-07-31T07:58:02;19.23;;;6.72;;
51296;SDS011;37380;45.186;9.792;2023-07-31T08:00:36;6.28;;;5.78;;
51296;SDS011;37380;45.186;9.792;2023-07-31T08:03:37;6.93;;;6.13;;
51296;SDS011;37380;45.186;9.792;2023-07-31T08:06:38;6.70;;;6.07;;
51296;SDS011;37380;45.186;9.792;2023-07-31T08:09:39;5.82;;;5.32;;
51296;SDS011;37380;45.186;9.792;2023-07-31T08:12:40;9.05;;;5.18;;
51296;SDS011;37380;45.186;9.792;2023-07-31T08:15:34;5.18;;;4.75;;
51296;SDS011;37380;45.186;9.792;2023-07-31T08:18:08;5.78;;;4.10;;
51296;SDS011;37380;45.186;9.792;2023-07-31T08:21:09;7.25;;;5.70;;
51296;SDS011;37380;45.186;9.792;2023-07-31T08:24:03;10.23;;;5.82;;
51296;SDS011;37380;45.186;9.792;2023-07-31T08:26:30;6.13;;;3.75;;
51296;SDS011;37380;45.186;9.792;2023-07-31T08:28:57;5.65;;;4.88;;
51296;SDS011;37380;45.186;9.792;2023-07-31T08:31:24;12.65;;;4.78;;
51296;SDS011;37380;45.186;9.792;2023-07-31T08:33:58;4.18;;;3.83;;
51296;SDS011;37380;45.186;9.792;2023-07-31T08:36:59;4.13;;;3.75;;
51296;SDS011;37380;45.186;9.792;2023-07-31T08:39:56;12.45;;;4.35;;
51296;SDS011;37380;45.186;9.792;2023-07-31T08:42:57;4.68;;;3.30;;
51296;SDS011;37380;45.186;9.792;2023-07-31T08:45:58;5.72;;;4.53;;
51296;SDS011;37380;45.186;9.792;2023-07-31T08:49:00;10.98;;;3.90;;
51296;SDS011;37380;45.186;9.792;2023-07-31T08:51:56;4.47;;;4.17;;
51296;SDS011;37380;45.186;9.792;2023-07-31T08:54:31;6.40;;;4.60;;
51296;SDS011;37380;45.186;9.792;2023-07-31T08:57:32;9.95;;;4.75;;
51296;SDS011;37380;45.186;9.792;2023-07-31T09:00:28;8.80;;;5.90;;
51296;SDS011;37380;45.186;9.792;2023-07-31T09:05:43;11.27;;;7.15;;
51296;SDS011;37380;45.186;9.792;2023-07-31T09:08:46;8.85;;;5.43;;
51296;SDS011;37380;45.186;9.792;2023-07-31T09:11:47;9.85;;;6.25;;
51296;SDS011;37380;45.186;9.792;2023-07-31T09:14:50;9.30;;;4.88;;
51296;SDS011;37380;45.186;9.792;2023-07-31T09:17:30;7.03;;;6.38;;
51296;SDS011;37380;45.186;9.792;2023-07-31T09:20:14;12.68;;;6.35;;
51296;SDS011;37380;45.186;9.792;2023-07-31T09:22:43;9.52;;;7.72;;
51296;SDS011;37380;45.186;9.792;2023-07-31T09:25:24;10.18;;;3.42;;
51296;SDS011;37380;45.186;9.792;2023-07-31T09:27:54;5.68;;;5.22;;
51296;SDS011;37380;45.186;9.792;2023-07-31T09:30:24;10.70;;;9.63;;
51296;SDS011;37380;45.186;9.792;2023-07-31T09:32:52;7.10;;;5.20;;
51296;SDS011;37380;45.186;9.792;2023-07-31T09:35:31;6.25;;;4.93;;
51296;SDS011;37380;45.186;9.792;2023-07-31T09:38:00;9.38;;;5.85;;
51296;SDS011;37380;45.186;9.792;2023-07-31T09:43:34;6.28;;;5.03;;
51296;SDS011;37380;45.186;9.792;2023-07-31T09:46:28;4.22;;;3.80;;
51296;SDS011;37380;45.186;9.792;2023-07-31T09:49:13;11.15;;;4.50;;
51296;SDS011;37380;45.186;9.792;2023-07-31T09:52:15;3.88;;;3.58;;
51296;SDS011;37380;45.186;9.792;2023-07-31T09:55:01;6.35;;;5.68;;
51296;SDS011;37380;45.186;9.792;2023-07-31T09:57:31;5.13;;;4.50;;
51296;SDS011;37380;45.186;9.792;2023-07-31T09:59:59;6.22;;;5.57;;
51296;SDS011;37380;45.186;9.792;2023-07-31T10:02:38;8.55;;;5.57;;
51296;SDS011;37380;45.186;9.792;2023-07-31T10:05:07;9.27;;;4.97;;
51296;SDS011;37380;45.186;9.792;2023-07-31T10:07:38;6.65;;;4.57;;
51296;SDS011;37380;45.186;9.792;2023-07-31T10:13:17;4.35;;;3.95;;
51296;SDS011;37380;45.186;9.792;2023-07-31T10:16:13;3.53;;;3.33;;
51296;SDS011;37380;45.186;9.792;2023-07-31T10:18:43;6.78;;;3.72;;
51296;SDS011;37380;45.186;9.792;2023-07-31T10:21:11;4.63;;;4.25;;
51296;SDS011;37380;45.186;9.792;2023-07-31T10:23:46;7.50;;;6.80;;
51296;SDS011;37380;45.186;9.792;2023-07-31T10:26:16;8.55;;;4.15;;
51296;SDS011;37380;45.186;9.792;2023-07-31T10:28:45;5.75;;;4.60;;
51296;SDS011;37380;45.186;9.792;2023-07-31T10:31:14;5.38;;;4.40;;
51296;SDS011;37380;45.186;9.792;2023-07-31T10:33:43;4.40;;;4.00;;
51296;SDS011;37380;45.186;9.792;2023-07-31T10:36:17;10.35;;;4.30;;
51296;SDS011;37380;45.186;9.792;2023-07-31T10:38:48;5.93;;;4.75;;
51296;SDS011;37380;45.186;9.792;2023-07-31T10:41:29;4.97;;;4.32;;
51296;SDS011;37380;45.186;9.792;2023-07-31T10:44:32;4.25;;;3.83;;
51296;SDS011;37380;45.186;9.792;2023-07-31T10:47:38;8.63;;;3.58;;
51296;SDS011;37380;45.186;9.792;2023-07-31T10:50:46;4.00;;;2.97;;
51296;SDS011;37380;45.186;9.792;2023-07-31T10:53:42;6.20;;;2.92;;
51296;SDS011;37380;45.186;9.792;2023-07-31T10:56:10;4.85;;;3.55;;
51296;SDS011;37380;45.186;9.792;2023-07-31T10:58:41;7.35;;;4.50;;
51296;SDS011;37380;45.186;9.792;2023-07-31T11:01:11;4.40;;;3.70;;
51296;SDS011;37380;45.186;9.792;2023-07-31T11:03:49;5.32;;;4.40;;
51296;SDS011;37380;45.186;9.792;2023-07-31T11:06:19;15.40;;;5.70;;
51296;SDS011;37380;45.186;9.792;2023-07-31T11:08:53;5.57;;;5.07;;
51296;SDS011;37380;45.186;9.792;2023-07-31T11:11:54;8.27;;;4.82;;
51296;SDS011;37380;45.186;9.792;2023-07-31T11:14:56;3.70;;;3.45;;
51296;SDS011;37380;45.186;9.792;2023-07-31T11:17:24;6.93;;;4.32;;
51296;SDS011;37380;45.186;9.792;2023-07-31T11:19:52;4.15;;;3.45;;
51296;SDS011;37380;45.186;9.792;2023-07-31T11:22:20;7.03;;;3.65;;
51296;SDS011;37380;45.186;9.792;2023-07-31T11:24:47;4.95;;;3.10;;
51296;SDS011;37380;45.186;9.792;2023-07-31T11:27:14;5.18;;;3.15;;
51296;SDS011;37380;45.186;9.792;2023-07-31T11:29:43;6.93;;;3.53;;
51296;SDS011;37380;45.186;9.792;2023-07-31T11:32:16;4.20;;;3.22;;
51296;SDS011;37380;45.186;9.792;2023-07-31T11:34:53;3.60;;;2.38;;
51296;SDS011;37380;45.186;9.792;2023-07-31T11:37:43;4.07;;;3.28;;
51296;SDS011;37380;45.186;9.792;2023-07-31T11:40:42;5.35;;;3.75;;
51296;SDS011;37380;45.186;9.792;2023-07-31T11:43:10;4.30;;;3.08;;
51296;SDS011;37380;45.186;9.792;2023-07-31T11:45:50;2.38;;;2.20;;
51296;SDS011;37380;45.186;9.792;2023-07-31T11:48:19;3.60;;;3.28;;
51296;SDS011;37380;45.186;9.792;2023-07-31T11:50:54;4.63;;;2.70;;
51296;SDS011;37380;45.186;9.792;2023-07-31T11:53:28;3.85;;;3.22;;
51296;SDS011;37380;45.186;9.792;2023-07-31T11:56:05;3.05;;;2.67;;
51296;SDS011;37380;45.186;9.792;2023-07-31T11:58:37;3.75;;;3.33;;
51296;SDS011;37380;45.186;9.792;2023-07-31T12:01:05;4.93;;;2.90;;
51296;SDS011;37380;45.186;9.792;2023-07-31T12:03:34;3.92;;;2.75;;
51296;SDS011;37380;45.186;9.792;2023-07-31T12:06:02;2.60;;;2.40;;
51296;SDS011;37380;45.186;9.792;2023-07-31T12:08:30;6.28;;;2.97;;
51296;SDS011;37380;45.186;9.792;2023-07-31T12:11:08;4.18;;;2.20;;
51296;SDS011;37380;45.186;9.792;2023-07-31T12:14:08;4.32;;;2.85;;
51296;SDS011;37380;45.186;9.792;2023-07-31T12:16:53;5.72;;;2.58;;
51296;SDS011;37380;45.186;9.792;2023-07-31T12:19:23;2.33;;;2.13;;
51296;SDS011;37380;45.186;9.792;2023-07-31T12:21:55;2.20;;;2.00;;
51296;SDS011;37380;45.186;9.792;2023-07-31T12:24:29;4.65;;;2.30;;
51296;SDS011;37380;45.186;9.792;2023-07-31T12:26:57;11.10;;;2.72;;
51296;SDS011;37380;45.186;9.792;2023-07-31T12:29:35;3.85;;;2.40;;
51296;SDS011;37380;45.186;9.792;2023-07-31T12:32:38;5.63;;;2.75;;
51296;SDS011;37380;45.186;9.792;2023-07-31T12:35:36;4.13;;;2.78;;
51296;SDS011;37380;45.186;9.792;2023-07-31T12:38:04;2.00;;;1.80;;
51296;SDS011;37380;45.186;9.792;2023-07-31T12:40:32;3.22;;;2.55;;
51296;SDS011;37380;45.186;9.792;2023-07-31T12:43:06;2.17;;;2.00;;
51296;SDS011;37380;45.186;9.792;2023-07-31T12:46:08;3.47;;;2.83;;
51296;SDS011;37380;45.186;9.792;2023-07-31T12:49:10;6.30;;;2.22;;
51296;SDS011;37380;45.186;9.792;2023-07-31T12:52:11;3.63;;;2.55;;
51296;SDS011;37380;45.186;9.792;2023-07-31T12:55:06;4.03;;;2.40;;
51296;SDS011;37380;45.186;9.792;2023-07-31T12:57:34;4.72;;;2.22;;
51296;SDS011;37380;45.186;9.792;2023-07-31T13:00:08;2.35;;;2.17;;
51296;SDS011;37380;45.186;9.792;2023-07-31T13:02:37;3.80;;;2.80;;
51296;SDS011;37380;45.186;9.792;2023-07-31T13:05:08;4.50;;;2.40;;
51296;SDS011;37380;45.186;9.792;2023-07-31T13:07:46;3.30;;;2.83;;
51296;SDS011;37380;45.186;9.792;2023-07-31T13:10:48;4.55;;;2.67;;
51296;SDS011;37380;45.186;9.792;2023-07-31T13:13:52;2.33;;;1.60;;
51296;SDS011;37380;45.186;9.792;2023-07-31T13:16:49;3.63;;;3.25;;
51296;SDS011;37380;45.186;9.792;2023-07-31T13:19:16;11.48;;;2.75;;
51296;SDS011;37380;45.186;9.792;2023-07-31T13:21:44;2.45;;;1.90;;
51296;SDS011;37380;45.186;9.792;2023-07-31T13:24:17;2.50;;;2.30;;
51296;SDS011;37380;45.186;9.792;2023-07-31T13:27:18;5.60;;;2.40;;
51296;SDS011;37380;45.186;9.792;2023-07-31T13:30:12;2.75;;;2.20;;
51296;SDS011;37380;45.186;9.792;2023-07-31T13:32:40;7.22;;;2.38;;
51296;SDS011;37380;45.186;9.792;2023-07-31T13:35:07;3.55;;;2.40;;
51296;SDS011;37380;45.186;9.792;2023-07-31T13:37:35;2.58;;;2.25;;
51296;SDS011;37380;45.186;9.792;2023-07-31T13:40:03;2.47;;;2.28;;
51296;SDS011;37380;45.186;9.792;2023-07-31T13:42:32;3.60;;;2.92;;
51296;SDS011;37380;45.186;9.792;2023-07-31T13:45:00;2.42;;;2.03;;
51296;SDS011;37380;45.186;9.792;2023-07-31T13:47:36;4.25;;;2.78;;
51296;SDS011;37380;45.186;9.792;2023-07-31T13:50:38;2.83;;;1.88;;
51296;SDS011;37380;45.186;9.792;2023-07-31T13:53:53;2.38;;;2.10;;
51296;SDS011;37380;45.186;9.792;2023-07-31T13:56:24;4.72;;;2.67;;
51296;SDS011;37380;45.186;9.792;2023-07-31T13:58:51;3.47;;;2.50;;
51296;SDS011;37380;45.186;9.792;2023-07-31T14:01:18;5.70;;;2.85;;
51296;SDS011;37380;45.186;9.792;2023-07-31T14:03:45;12.68;;;2.70;;
51296;SDS011;37380;45.186;9.792;2023-07-31T14:06:19;2.30;;;2.10;;
51296;SDS011;37380;45.186;9.792;2023-07-31T14:09:23;2.73;;;2.33;;
51296;SDS011;37380;45.186;9.792;2023-07-31T14:12:24;2.15;;;2.03;;
51296;SDS011;37380;45.186;9.792;2023-07-31T14:15:29;6.32;;;2.45;;
51296;SDS011;37380;45.186;9.792;2023-07-31T14:18:30;2.25;;;1.80;;
51296;SDS011;37380;45.186;9.792;2023-07-31T14:21:31;2.65;;;2.45;;
51296;SDS011;37380;45.186;9.792;2023-07-31T14:24:29;3.92;;;2.05;;
51296;SDS011;37380;45.186;9.792;2023-07-31T14:26:56;5.40;;;1.75;;
51296;SDS011;37380;45.186;9.792;2023-07-31T14:29:23;3.10;;;1.98;;
51296;SDS011;37380;45.186;9.792;2023-07-31T14:31:51;10.88;;;2.10;;
51296;SDS011;37380;45.186;9.792;2023-07-31T14:34:18;1.90;;;1.80;;
51296;SDS011;37380;45.186;9.792;2023-07-31T14:36:48;2.22;;;1.88;;
51296;SDS011;37380;45.186;9.792;2023-07-31T14:39:15;4.60;;;2.15;;
51296;SDS011;37380;45.186;9.792;2023-07-31T14:41:43;2.58;;;2.33;;
51296;SDS011;37380;45.186;9.792;2023-07-31T14:44:11;2.10;;;1.90;;
51296;SDS011;37380;45.186;9.792;2023-07-31T14:46:38;3.95;;;2.15;;
51296;SDS011;37380;45.186;9.792;2023-07-31T14:49:05;3.67;;;2.33;;
51296;SDS011;37380;45.186;9.792;2023-07-31T14:51:39;2.22;;;2.03;;
51296;SDS011;37380;45.186;9.792;2023-07-31T14:54:40;2.75;;;2.22;;
51296;SDS011;37380;45.186;9.792;2023-07-31T14:57:43;2.03;;;1.83;;
51296;SDS011;37380;45.186;9.792;2023-07-31T15:00:48;3.33;;;2.50;;
51296;SDS011;37380;45.186;9.792;2023-07-31T15:03:50;2.75;;;2.25;;
51296;SDS011;37380;45.186;9.792;2023-07-31T15:06:52;7.78;;;2.08;;
51296;SDS011;37380;45.186;9.792;2023-07-31T15:09:56;2.95;;;1.85;;
51296;SDS011;37380;45.186;9.792;2023-07-31T15:12:57;4.90;;;2.17;;
51296;SDS011;37380;45.186;9.792;2023-07-31T15:15:58;4.68;;;2.65;;
51296;SDS011;37380;45.186;9.792;2023-07-31T15:21:23;3.58;;;2.85;;
51296;SDS011;37380;45.186;9.792;2023-07-31T15:23:51;9.52;;;3.05;;
51296;SDS011;37380;45.186;9.792;2023-07-31T15:26:26;4.32;;;2.22;;
51296;SDS011;37380;45.186;9.792;2023-07-31T15:29:00;3.03;;;2.35;;
51296;SDS011;37380;45.186;9.792;2023-07-31T15:31:44;9.18;;;2.33;;
51296;SDS011;37380;45.186;9.792;2023-07-31T15:34:13;3.63;;;1.90;;
51296;SDS011;37380;45.186;9.792;2023-07-31T15:36:41;3.47;;;2.40;;
51296;SDS011;37380;45.186;9.792;2023-07-31T15:39:09;2.10;;;1.90;;
51296;SDS011;37380;45.186;9.792;2023-07-31T15:41:37;2.70;;;2.45;;
51296;SDS011;37380;45.186;9.792;2023-07-31T15:44:05;4.65;;;2.80;;
51296;SDS011;37380;45.186;9.792;2023-07-31T15:46:39;2.65;;;2.35;;
51296;SDS011;37380;45.186;9.792;2023-07-31T15:49:40;3.42;;;2.80;;
51296;SDS011;37380;45.186;9.792;2023-07-31T15:52:35;4.47;;;1.98;;
51296;SDS011;37380;45.186;9.792;2023-07-31T15:55:10;5.95;;;2.60;;
51296;SDS011;37380;45.186;9.792;2023-07-31T15:58:13;3.05;;;2.38;;
51296;SDS011;37380;45.186;9.792;2023-07-31T16:01:14;2.00;;;1.88;;
51296;SDS011;37380;45.186;9.792;2023-07-31T16:04:15;7.63;;;2.97;;
51296;SDS011;37380;45.186;9.792;2023-07-31T16:07:16;1.92;;;1.80;;
51296;SDS011;37380;45.186;9.792;2023-07-31T16:10:13;7.28;;;2.95;;
51296;SDS011;37380;45.186;9.792;2023-07-31T16:13:14;8.43;;;3.42;;